sensor_id;sensor_type;location;lat;lon;timestamp;P1;durP1;ratioP1;P2;durP2;ratioP2
5279;SDS011;2663;53.588;10.010;2023-09-30T00:02:26;15.07;;;4.87;;
5279;SDS011;2663;53.588;10.010;2023-09-30T00:04:54;28.80;;;4.93;;
5279;SDS011;2663;53.588;10.010;2023-09-30T00:07:20;17.50;;;4.43;;
5279;SDS011;2663;53.588;10.010;2023-09-30T00:09:47;17.80;;;4.67;;
5279;SDS011;2663;53.588;10.010;2023-09-30T00:12:14;17.40;;;4.20;;
5279;SDS011;2663;53.588;10.010;2023-09-30T00:14:41;21.30;;;4.20;;
5279;SDS011;2663;53.588;10.010;2023-09-30T00:17:08;12.77;;;3.60;;
5279;SDS011;2663;53.588;10.010;2023-09-30T00:19:34;23.57;;;4.80;;
5279;SDS011;2663;53.588;10.010;2023-09-30T00:22:01;16.73;;;4.03;;
5279;SDS011;2663;53.588;10.010;2023-09-30T00:24:28;23.23;;;5.30;;
5279;SDS011;2663;53.588;10.010;2023-09-30T00:26:55;15.30;;;4.13;;
5279;SDS011;2663;53.588;10.010;2023-09-30T00:29:22;20.43;;;4.00;;
5279;SDS011;2663;53.588;10.010;2023-09-30T00:31:49;13.83;;;4.30;;
5279;SDS011;2663;53.588;10.010;2023-09-30T00:34:16;17.10;;;4.20;;
5279;SDS011;2663;53.588;10.010;2023-09-30T00:36:43;26.57;;;4.43;;
5279;SDS011;2663;53.588;10.010;2023-09-30T00:39:10;28.60;;;4.80;;
5279;SDS011;2663;53.588;10.010;2023-09-30T00:41:38;19.40;;;4.43;;
5279;SDS011;2663;53.588;10.010;2023-09-30T00:44:06;21.10;;;4.10;;
5279;SDS011;2663;53.588;10.010;2023-09-30T00:46:35;19.30;;;4.50;;
5279;SDS011;2663;53.588;10.010;2023-09-30T00:49:04;12.87;;;3.90;;
5279;SDS011;2663;53.588;10.010;2023-09-30T00:51:31;23.33;;;4.70;;
5279;SDS011;2663;53.588;10.010;2023-09-30T00:53:59;18.43;;;4.33;;
5279;SDS011;2663;53.588;10.010;2023-09-30T00:56:28;19.60;;;3.70;;
5279;SDS011;2663;53.588;10.010;2023-09-30T00:58:56;23.60;;;4.03;;
5279;SDS011;2663;53.588;10.010;2023-09-30T01:01:23;19.40;;;4.23;;
5279;SDS011;2663;53.588;10.010;2023-09-30T01:03:51;21.63;;;3.47;;
5279;SDS011;2663;53.588;10.010;2023-09-30T01:06:18;16.50;;;5.10;;
5279;SDS011;2663;53.588;10.010;2023-09-30T01:08:45;12.50;;;3.10;;
5279;SDS011;2663;53.588;10.010;2023-09-30T01:11:12;13.23;;;3.67;;
5279;SDS011;2663;53.588;10.010;2023-09-30T01:13:40;19.47;;;5.37;;
5279;SDS011;2663;53.588;10.010;2023-09-30T01:16:07;23.03;;;3.97;;
5279;SDS011;2663;53.588;10.010;2023-09-30T01:18:39;12.43;;;3.63;;
5279;SDS011;2663;53.588;10.010;2023-09-30T01:21:06;15.23;;;4.00;;
5279;SDS011;2663;53.588;10.010;2023-09-30T01:23:33;16.93;;;3.90;;
5279;SDS011;2663;53.588;10.010;2023-09-30T01:26:04;19.30;;;4.47;;
5279;SDS011;2663;53.588;10.010;2023-09-30T01:28:40;22.73;;;3.97;;
5279;SDS011;2663;53.588;10.010;2023-09-30T01:31:07;15.77;;;3.90;;
5279;SDS011;2663;53.588;10.010;2023-09-30T01:33:34;13.00;;;3.70;;
5279;SDS011;2663;53.588;10.010;2023-09-30T01:36:01;26.23;;;3.93;;
5279;SDS011;2663;53.588;10.010;2023-09-30T01:38:28;27.90;;;5.10;;
5279;SDS011;2663;53.588;10.010;2023-09-30T01:40:55;26.30;;;4.97;;
5279;SDS011;2663;53.588;10.010;2023-09-30T01:43:26;24.87;;;4.57;;
5279;SDS011;2663;53.588;10.010;2023-09-30T01:45:52;18.50;;;4.50;;
5279;SDS011;2663;53.588;10.010;2023-09-30T01:48:19;18.37;;;4.77;;
5279;SDS011;2663;53.588;10.010;2023-09-30T01:50:46;25.40;;;5.20;;
5279;SDS011;2663;53.588;10.010;2023-09-30T01:53:14;18.40;;;4.10;;
5279;SDS011;2663;53.588;10.010;2023-09-30T01:55:41;23.93;;;5.53;;
5279;SDS011;2663;53.588;10.010;2023-09-30T01:58:08;28.50;;;4.10;;
5279;SDS011;2663;53.588;10.010;2023-09-30T02:00:37;13.97;;;3.10;;
5279;SDS011;2663;53.588;10.010;2023-09-30T02:03:04;24.47;;;4.03;;
5279;SDS011;2663;53.588;10.010;2023-09-30T02:05:31;18.90;;;4.07;;
5279;SDS011;2663;53.588;10.010;2023-09-30T02:07:57;14.40;;;4.67;;
5279;SDS011;2663;53.588;10.010;2023-09-30T02:10:24;18.37;;;4.80;;
5279;SDS011;2663;53.588;10.010;2023-09-30T02:12:51;15.83;;;4.10;;
5279;SDS011;2663;53.588;10.010;2023-09-30T02:15:18;26.07;;;4.60;;
5279;SDS011;2663;53.588;10.010;2023-09-30T02:17:44;20.23;;;4.40;;
5279;SDS011;2663;53.588;10.010;2023-09-30T02:20:12;15.80;;;4.10;;
5279;SDS011;2663;53.588;10.010;2023-09-30T02:22:42;14.80;;;4.33;;
5279;SDS011;2663;53.588;10.010;2023-09-30T02:25:12;17.90;;;3.97;;
5279;SDS011;2663;53.588;10.010;2023-09-30T02:27:42;17.33;;;4.27;;
5279;SDS011;2663;53.588;10.010;2023-09-30T02:30:09;10.27;;;3.60;;
5279;SDS011;2663;53.588;10.010;2023-09-30T02:32:38;23.70;;;4.63;;
5279;SDS011;2663;53.588;10.010;2023-09-30T02:35:07;17.53;;;4.30;;
5279;SDS011;2663;53.588;10.010;2023-09-30T02:37:34;17.83;;;4.23;;
5279;SDS011;2663;53.588;10.010;2023-09-30T02:40:05;18.40;;;4.40;;
5279;SDS011;2663;53.588;10.010;2023-09-30T02:42:36;23.07;;;4.17;;
5279;SDS011;2663;53.588;10.010;2023-09-30T02:45:07;17.80;;;4.73;;
5279;SDS011;2663;53.588;10.010;2023-09-30T02:47:35;31.17;;;4.33;;
5279;SDS011;2663;53.588;10.010;2023-09-30T02:50:04;20.10;;;4.73;;
5279;SDS011;2663;53.588;10.010;2023-09-30T02:52:34;23.10;;;4.00;;
5279;SDS011;2663;53.588;10.010;2023-09-30T02:55:01;22.87;;;4.23;;
5279;SDS011;2663;53.588;10.010;2023-09-30T02:57:29;17.00;;;3.60;;
5279;SDS011;2663;53.588;10.010;2023-09-30T02:59:57;16.80;;;5.30;;
5279;SDS011;2663;53.588;10.010;2023-09-30T03:02:27;17.37;;;4.47;;
5279;SDS011;2663;53.588;10.010;2023-09-30T03:04:54;20.43;;;4.23;;
5279;SDS011;2663;53.588;10.010;2023-09-30T03:07:21;12.43;;;3.57;;
5279;SDS011;2663;53.588;10.010;2023-09-30T03:09:47;25.43;;;4.40;;
5279;SDS011;2663;53.588;10.010;2023-09-30T03:12:14;31.80;;;5.07;;
5279;SDS011;2663;53.588;10.010;2023-09-30T03:14:41;19.03;;;5.17;;
5279;SDS011;2663;53.588;10.010;2023-09-30T03:17:09;16.90;;;4.20;;
5279;SDS011;2663;53.588;10.010;2023-09-30T03:19:38;26.60;;;5.10;;
5279;SDS011;2663;53.588;10.010;2023-09-30T03:22:05;23.27;;;3.63;;
5279;SDS011;2663;53.588;10.010;2023-09-30T03:24:38;15.43;;;4.47;;
5279;SDS011;2663;53.588;10.010;2023-09-30T03:27:06;28.97;;;5.53;;
5279;SDS011;2663;53.588;10.010;2023-09-30T03:29:37;13.97;;;3.33;;
5279;SDS011;2663;53.588;10.010;2023-09-30T03:32:04;12.33;;;4.10;;
5279;SDS011;2663;53.588;10.010;2023-09-30T03:34:31;22.13;;;4.50;;
5279;SDS011;2663;53.588;10.010;2023-09-30T03:36:59;17.80;;;4.83;;
5279;SDS011;2663;53.588;10.010;2023-09-30T03:39:26;17.60;;;4.40;;
5279;SDS011;2663;53.588;10.010;2023-09-30T03:41:56;12.63;;;4.07;;
5279;SDS011;2663;53.588;10.010;2023-09-30T03:44:24;21.03;;;3.60;;
5279;SDS011;2663;53.588;10.010;2023-09-30T03:46:51;17.30;;;3.73;;
5279;SDS011;2663;53.588;10.010;2023-09-30T03:49:19;19.53;;;4.43;;
5279;SDS011;2663;53.588;10.010;2023-09-30T03:51:48;22.43;;;4.63;;
5279;SDS011;2663;53.588;10.010;2023-09-30T03:54:17;21.80;;;3.97;;
5279;SDS011;2663;53.588;10.010;2023-09-30T03:56:44;26.10;;;4.90;;
5279;SDS011;2663;53.588;10.010;2023-09-30T03:59:13;25.57;;;3.70;;
5279;SDS011;2663;53.588;10.010;2023-09-30T04:01:39;16.67;;;4.20;;
5279;SDS011;2663;53.588;10.010;2023-09-30T04:04:07;21.13;;;4.13;;
5279;SDS011;2663;53.588;10.010;2023-09-30T04:06:36;22.43;;;4.60;;
5279;SDS011;2663;53.588;10.010;2023-09-30T04:09:07;14.13;;;3.80;;
5279;SDS011;2663;53.588;10.010;2023-09-30T04:11:37;30.23;;;6.00;;
5279;SDS011;2663;53.588;10.010;2023-09-30T04:14:07;16.47;;;4.77;;
5279;SDS011;2663;53.588;10.010;2023-09-30T04:16:35;17.83;;;4.20;;
5279;SDS011;2663;53.588;10.010;2023-09-30T04:19:04;20.87;;;4.43;;
5279;SDS011;2663;53.588;10.010;2023-09-30T04:21:31;14.40;;;3.87;;
5279;SDS011;2663;53.588;10.010;2023-09-30T04:24:00;27.70;;;5.90;;
5279;SDS011;2663;53.588;10.010;2023-09-30T04:26:27;17.87;;;4.07;;
5279;SDS011;2663;53.588;10.010;2023-09-30T04:28:54;25.10;;;4.73;;
5279;SDS011;2663;53.588;10.010;2023-09-30T04:31:21;24.03;;;4.83;;
5279;SDS011;2663;53.588;10.010;2023-09-30T04:33:49;15.87;;;3.90;;
5279;SDS011;2663;53.588;10.010;2023-09-30T04:36:19;16.23;;;5.03;;
5279;SDS011;2663;53.588;10.010;2023-09-30T04:38:47;19.20;;;4.57;;
5279;SDS011;2663;53.588;10.010;2023-09-30T04:41:14;21.13;;;4.70;;
5279;SDS011;2663;53.588;10.010;2023-09-30T04:43:42;20.10;;;4.60;;
5279;SDS011;2663;53.588;10.010;2023-09-30T04:46:10;17.50;;;4.43;;
5279;SDS011;2663;53.588;10.010;2023-09-30T04:48:39;21.13;;;4.60;;
5279;SDS011;2663;53.588;10.010;2023-09-30T04:51:06;23.37;;;5.37;;
5279;SDS011;2663;53.588;10.010;2023-09-30T04:53:34;19.07;;;5.00;;
5279;SDS011;2663;53.588;10.010;2023-09-30T04:56:02;31.00;;;4.90;;
5279;SDS011;2663;53.588;10.010;2023-09-30T04:58:29;13.50;;;4.73;;
5279;SDS011;2663;53.588;10.010;2023-09-30T05:00:56;26.33;;;5.57;;
5279;SDS011;2663;53.588;10.010;2023-09-30T05:03:24;23.17;;;5.13;;
5279;SDS011;2663;53.588;10.010;2023-09-30T05:05:54;18.97;;;5.07;;
5279;SDS011;2663;53.588;10.010;2023-09-30T05:08:24;26.23;;;5.13;;
5279;SDS011;2663;53.588;10.010;2023-09-30T05:10:52;15.90;;;3.80;;
5279;SDS011;2663;53.588;10.010;2023-09-30T05:13:22;18.43;;;3.93;;
5279;SDS011;2663;53.588;10.010;2023-09-30T05:15:52;24.10;;;4.37;;
5279;SDS011;2663;53.588;10.010;2023-09-30T05:18:19;16.80;;;4.33;;
5279;SDS011;2663;53.588;10.010;2023-09-30T05:20:46;17.93;;;4.30;;
5279;SDS011;2663;53.588;10.010;2023-09-30T05:23:13;19.27;;;5.30;;
5279;SDS011;2663;53.588;10.010;2023-09-30T05:25:41;29.77;;;5.40;;
5279;SDS011;2663;53.588;10.010;2023-09-30T05:28:09;17.33;;;3.93;;
5279;SDS011;2663;53.588;10.010;2023-09-30T05:30:37;23.03;;;4.37;;
5279;SDS011;2663;53.588;10.010;2023-09-30T05:33:05;26.73;;;4.30;;
5279;SDS011;2663;53.588;10.010;2023-09-30T05:35:32;17.83;;;4.27;;
5279;SDS011;2663;53.588;10.010;2023-09-30T05:37:59;21.63;;;4.23;;
5279;SDS011;2663;53.588;10.010;2023-09-30T05:40:26;17.63;;;4.33;;
5279;SDS011;2663;53.588;10.010;2023-09-30T05:42:54;28.73;;;4.47;;
5279;SDS011;2663;53.588;10.010;2023-09-30T05:45:25;20.67;;;3.80;;
5279;SDS011;2663;53.588;10.010;2023-09-30T05:47:53;17.83;;;5.50;;
5279;SDS011;2663;53.588;10.010;2023-09-30T05:50:23;23.03;;;4.33;;
5279;SDS011;2663;53.588;10.010;2023-09-30T05:52:54;12.30;;;3.80;;
5279;SDS011;2663;53.588;10.010;2023-09-30T05:55:22;15.20;;;4.53;;
5279;SDS011;2663;53.588;10.010;2023-09-30T05:57:52;24.80;;;4.43;;
5279;SDS011;2663;53.588;10.010;2023-09-30T06:00:21;17.83;;;4.33;;
5279;SDS011;2663;53.588;10.010;2023-09-30T06:02:49;20.97;;;4.90;;
5279;SDS011;2663;53.588;10.010;2023-09-30T06:05:18;27.27;;;5.50;;
5279;SDS011;2663;53.588;10.010;2023-09-30T06:07:45;17.63;;;5.30;;
5279;SDS011;2663;53.588;10.010;2023-09-30T06:10:13;16.20;;;4.70;;
5279;SDS011;2663;53.588;10.010;2023-09-30T06:12:50;25.13;;;5.43;;
5279;SDS011;2663;53.588;10.010;2023-09-30T06:15:22;23.00;;;5.10;;
5279;SDS011;2663;53.588;10.010;2023-09-30T06:17:52;17.00;;;5.57;;
5279;SDS011;2663;53.588;10.010;2023-09-30T06:20:20;14.10;;;4.07;;
5279;SDS011;2663;53.588;10.010;2023-09-30T06:22:49;17.20;;;4.27;;
5279;SDS011;2663;53.588;10.010;2023-09-30T06:25:16;19.07;;;5.00;;
5279;SDS011;2663;53.588;10.010;2023-09-30T06:27:47;17.97;;;4.00;;
5279;SDS011;2663;53.588;10.010;2023-09-30T06:30:14;22.73;;;4.97;;
5279;SDS011;2663;53.588;10.010;2023-09-30T06:32:42;21.10;;;4.50;;
5279;SDS011;2663;53.588;10.010;2023-09-30T06:35:11;19.53;;;4.13;;
5279;SDS011;2663;53.588;10.010;2023-09-30T06:37:38;17.67;;;4.30;;
5279;SDS011;2663;53.588;10.010;2023-09-30T06:40:06;15.00;;;4.80;;
5279;SDS011;2663;53.588;10.010;2023-09-30T06:42:35;28.63;;;4.97;;
5279;SDS011;2663;53.588;10.010;2023-09-30T06:45:03;18.43;;;5.23;;
5279;SDS011;2663;53.588;10.010;2023-09-30T06:47:32;20.57;;;4.80;;
5279;SDS011;2663;53.588;10.010;2023-09-30T06:50:03;20.53;;;4.63;;
5279;SDS011;2663;53.588;10.010;2023-09-30T06:52:37;30.10;;;4.97;;
5279;SDS011;2663;53.588;10.010;2023-09-30T06:55:05;15.47;;;4.47;;
5279;SDS011;2663;53.588;10.010;2023-09-30T06:57:36;22.23;;;4.23;;
5279;SDS011;2663;53.588;10.010;2023-09-30T07:00:07;22.07;;;5.00;;
5279;SDS011;2663;53.588;10.010;2023-09-30T07:02:36;20.13;;;4.30;;
5279;SDS011;2663;53.588;10.010;2023-09-30T07:05:09;15.90;;;4.20;;
5279;SDS011;2663;53.588;10.010;2023-09-30T07:07:37;22.10;;;4.90;;
5279;SDS011;2663;53.588;10.010;2023-09-30T07:10:12;15.40;;;4.03;;
5279;SDS011;2663;53.588;10.010;2023-09-30T07:12:39;23.37;;;4.60;;
5279;SDS011;2663;53.588;10.010;2023-09-30T07:15:06;18.47;;;5.40;;
5279;SDS011;2663;53.588;10.010;2023-09-30T07:17:33;25.43;;;5.33;;
5279;SDS011;2663;53.588;10.010;2023-09-30T07:20:01;23.47;;;5.47;;
5279;SDS011;2663;53.588;10.010;2023-09-30T07:22:29;12.63;;;3.57;;
5279;SDS011;2663;53.588;10.010;2023-09-30T07:24:58;20.70;;;3.50;;
5279;SDS011;2663;53.588;10.010;2023-09-30T07:27:26;17.13;;;4.27;;
5279;SDS011;2663;53.588;10.010;2023-09-30T07:29:54;14.53;;;3.53;;
5279;SDS011;2663;53.588;10.010;2023-09-30T07:32:21;18.50;;;4.43;;
5279;SDS011;2663;53.588;10.010;2023-09-30T07:34:51;21.30;;;4.23;;
5279;SDS011;2663;53.588;10.010;2023-09-30T07:37:18;26.20;;;4.80;;
5279;SDS011;2663;53.588;10.010;2023-09-30T07:39:46;17.27;;;4.13;;
5279;SDS011;2663;53.588;10.010;2023-09-30T07:42:13;20.00;;;4.80;;
5279;SDS011;2663;53.588;10.010;2023-09-30T07:44:40;21.60;;;3.93;;
5279;SDS011;2663;53.588;10.010;2023-09-30T07:47:07;14.50;;;3.80;;
5279;SDS011;2663;53.588;10.010;2023-09-30T07:49:35;17.63;;;4.07;;
5279;SDS011;2663;53.588;10.010;2023-09-30T07:52:03;12.67;;;3.60;;
5279;SDS011;2663;53.588;10.010;2023-09-30T07:54:30;15.93;;;3.73;;
5279;SDS011;2663;53.588;10.010;2023-09-30T07:56:57;16.03;;;2.90;;
5279;SDS011;2663;53.588;10.010;2023-09-30T07:59:25;23.00;;;3.30;;
5279;SDS011;2663;53.588;10.010;2023-09-30T08:01:53;13.63;;;3.00;;
5279;SDS011;2663;53.588;10.010;2023-09-30T08:04:20;22.37;;;3.80;;
5279;SDS011;2663;53.588;10.010;2023-09-30T08:06:46;22.73;;;4.57;;
5279;SDS011;2663;53.588;10.010;2023-09-30T08:09:13;13.07;;;3.70;;
5279;SDS011;2663;53.588;10.010;2023-09-30T08:11:40;17.93;;;4.00;;
5279;SDS011;2663;53.588;10.010;2023-09-30T08:14:07;14.20;;;3.37;;
5279;SDS011;2663;53.588;10.010;2023-09-30T08:16:37;22.03;;;3.40;;
5279;SDS011;2663;53.588;10.010;2023-09-30T08:19:04;16.90;;;3.30;;
5279;SDS011;2663;53.588;10.010;2023-09-30T08:21:31;16.00;;;3.63;;
5279;SDS011;2663;53.588;10.010;2023-09-30T08:23:58;29.73;;;3.97;;
5279;SDS011;2663;53.588;10.010;2023-09-30T08:26:25;21.60;;;4.00;;
5279;SDS011;2663;53.588;10.010;2023-09-30T08:28:52;20.07;;;4.47;;
5279;SDS011;2663;53.588;10.010;2023-09-30T08:31:19;10.23;;;3.43;;
5279;SDS011;2663;53.588;10.010;2023-09-30T08:33:48;10.20;;;3.53;;
5279;SDS011;2663;53.588;10.010;2023-09-30T08:36:14;11.43;;;3.07;;
5279;SDS011;2663;53.588;10.010;2023-09-30T08:38:41;22.90;;;4.83;;
5279;SDS011;2663;53.588;10.010;2023-09-30T08:41:08;24.50;;;4.20;;
5279;SDS011;2663;53.588;10.010;2023-09-30T08:43:36;14.53;;;3.33;;
5279;SDS011;2663;53.588;10.010;2023-09-30T08:46:05;14.47;;;2.80;;
5279;SDS011;2663;53.588;10.010;2023-09-30T08:48:33;23.80;;;6.00;;
5279;SDS011;2663;53.588;10.010;2023-09-30T08:51:01;11.47;;;2.87;;
5279;SDS011;2663;53.588;10.010;2023-09-30T08:53:28;10.97;;;2.90;;
5279;SDS011;2663;53.588;10.010;2023-09-30T08:55:56;22.93;;;3.70;;
5279;SDS011;2663;53.588;10.010;2023-09-30T08:58:26;15.50;;;4.20;;
5279;SDS011;2663;53.588;10.010;2023-09-30T09:00:54;18.77;;;3.63;;
5279;SDS011;2663;53.588;10.010;2023-09-30T09:03:23;18.60;;;3.50;;
5279;SDS011;2663;53.588;10.010;2023-09-30T09:05:53;6.83;;;2.63;;
5279;SDS011;2663;53.588;10.010;2023-09-30T09:08:25;22.83;;;3.10;;
5279;SDS011;2663;53.588;10.010;2023-09-30T09:10:59;25.70;;;3.93;;
5279;SDS011;2663;53.588;10.010;2023-09-30T09:13:27;14.03;;;3.27;;
5279;SDS011;2663;53.588;10.010;2023-09-30T09:16:06;10.70;;;2.97;;
5279;SDS011;2663;53.588;10.010;2023-09-30T09:18:34;16.20;;;3.30;;
5279;SDS011;2663;53.588;10.010;2023-09-30T09:23:45;10.90;;;2.83;;
5279;SDS011;2663;53.588;10.010;2023-09-30T09:28:55;15.60;;;3.20;;
5279;SDS011;2663;53.588;10.010;2023-09-30T09:31:32;13.13;;;3.63;;
5279;SDS011;2663;53.588;10.010;2023-09-30T09:34:03;20.07;;;4.80;;
5279;SDS011;2663;53.588;10.010;2023-09-30T09:36:40;18.63;;;3.40;;
5279;SDS011;2663;53.588;10.010;2023-09-30T09:39:11;18.03;;;4.20;;
5279;SDS011;2663;53.588;10.010;2023-09-30T09:41:51;11.23;;;2.73;;
5279;SDS011;2663;53.588;10.010;2023-09-30T09:44:19;16.30;;;2.73;;
5279;SDS011;2663;53.588;10.010;2023-09-30T09:46:48;14.70;;;3.20;;
5279;SDS011;2663;53.588;10.010;2023-09-30T09:49:17;16.60;;;3.10;;
5279;SDS011;2663;53.588;10.010;2023-09-30T09:51:45;17.80;;;3.20;;
5279;SDS011;2663;53.588;10.010;2023-09-30T09:54:13;9.60;;;2.50;;
5279;SDS011;2663;53.588;10.010;2023-09-30T09:56:42;16.87;;;2.90;;
5279;SDS011;2663;53.588;10.010;2023-09-30T09:59:13;16.10;;;2.80;;
5279;SDS011;2663;53.588;10.010;2023-09-30T10:01:40;16.77;;;2.97;;
5279;SDS011;2663;53.588;10.010;2023-09-30T10:04:11;14.73;;;2.53;;
5279;SDS011;2663;53.588;10.010;2023-09-30T10:06:42;12.10;;;2.27;;
5279;SDS011;2663;53.588;10.010;2023-09-30T10:09:14;9.50;;;2.50;;
5279;SDS011;2663;53.588;10.010;2023-09-30T10:11:43;15.43;;;3.10;;
5279;SDS011;2663;53.588;10.010;2023-09-30T10:14:11;13.67;;;2.43;;
5279;SDS011;2663;53.588;10.010;2023-09-30T10:16:59;8.50;;;2.07;;
5279;SDS011;2663;53.588;10.010;2023-09-30T10:19:26;10.67;;;2.87;;
5279;SDS011;2663;53.588;10.010;2023-09-30T10:24:57;11.97;;;2.50;;
5279;SDS011;2663;53.588;10.010;2023-09-30T10:37:52;22.73;;;2.70;;
5279;SDS011;2663;53.588;10.010;2023-09-30T10:40:56;17.67;;;2.83;;
5279;SDS011;2663;53.588;10.010;2023-09-30T10:43:32;14.13;;;2.60;;
5279;SDS011;2663;53.588;10.010;2023-09-30T10:48:52;14.30;;;1.87;;
5279;SDS011;2663;53.588;10.010;2023-09-30T10:51:20;13.00;;;2.67;;
5279;SDS011;2663;53.588;10.010;2023-09-30T10:56:20;11.80;;;2.23;;
5279;SDS011;2663;53.588;10.010;2023-09-30T10:58:49;25.23;;;2.50;;
5279;SDS011;2663;53.588;10.010;2023-09-30T11:01:21;17.87;;;2.63;;
5279;SDS011;2663;53.588;10.010;2023-09-30T11:03:49;21.63;;;2.80;;
5279;SDS011;2663;53.588;10.010;2023-09-30T11:06:24;11.20;;;2.10;;
5279;SDS011;2663;53.588;10.010;2023-09-30T11:08:56;18.90;;;2.47;;
5279;SDS011;2663;53.588;10.010;2023-09-30T11:11:36;16.23;;;2.53;;
5279;SDS011;2663;53.588;10.010;2023-09-30T11:14:19;9.73;;;2.13;;
5279;SDS011;2663;53.588;10.010;2023-09-30T11:16:55;16.10;;;1.70;;
5279;SDS011;2663;53.588;10.010;2023-09-30T11:19:23;14.53;;;2.30;;
5279;SDS011;2663;53.588;10.010;2023-09-30T11:21:53;11.43;;;2.43;;
5279;SDS011;2663;53.588;10.010;2023-09-30T11:24:21;11.00;;;2.43;;
5279;SDS011;2663;53.588;10.010;2023-09-30T11:26:52;17.30;;;2.80;;
5279;SDS011;2663;53.588;10.010;2023-09-30T11:29:19;6.83;;;1.80;;
5279;SDS011;2663;53.588;10.010;2023-09-30T11:31:48;12.93;;;2.30;;
5279;SDS011;2663;53.588;10.010;2023-09-30T11:34:17;7.70;;;2.50;;
5279;SDS011;2663;53.588;10.010;2023-09-30T11:36:49;6.80;;;1.77;;
5279;SDS011;2663;53.588;10.010;2023-09-30T11:39:23;19.93;;;2.80;;
5279;SDS011;2663;53.588;10.010;2023-09-30T11:41:51;8.67;;;1.67;;
5279;SDS011;2663;53.588;10.010;2023-09-30T11:44:19;10.43;;;2.40;;
5279;SDS011;2663;53.588;10.010;2023-09-30T11:46:53;15.60;;;2.33;;
5279;SDS011;2663;53.588;10.010;2023-09-30T11:49:32;10.03;;;1.80;;
5279;SDS011;2663;53.588;10.010;2023-09-30T11:52:10;5.30;;;2.20;;
5279;SDS011;2663;53.588;10.010;2023-09-30T11:54:39;9.73;;;1.93;;
5279;SDS011;2663;53.588;10.010;2023-09-30T11:57:10;13.80;;;2.30;;
5279;SDS011;2663;53.588;10.010;2023-09-30T11:59:38;13.60;;;3.80;;
5279;SDS011;2663;53.588;10.010;2023-09-30T12:02:10;9.87;;;2.07;;
5279;SDS011;2663;53.588;10.010;2023-09-30T12:04:44;9.87;;;2.20;;
5279;SDS011;2663;53.588;10.010;2023-09-30T12:07:13;15.57;;;2.53;;
5279;SDS011;2663;53.588;10.010;2023-09-30T12:09:41;10.80;;;2.20;;
5279;SDS011;2663;53.588;10.010;2023-09-30T12:12:09;9.97;;;1.70;;
5279;SDS011;2663;53.588;10.010;2023-09-30T12:14:37;12.53;;;2.30;;
5279;SDS011;2663;53.588;10.010;2023-09-30T12:17:03;10.60;;;2.33;;
5279;SDS011;2663;53.588;10.010;2023-09-30T12:19:30;11.80;;;2.60;;
5279;SDS011;2663;53.588;10.010;2023-09-30T12:21:58;11.20;;;2.37;;
5279;SDS011;2663;53.588;10.010;2023-09-30T12:24:24;8.80;;;2.03;;
5279;SDS011;2663;53.588;10.010;2023-09-30T12:26:53;6.10;;;1.70;;
5279;SDS011;2663;53.588;10.010;2023-09-30T12:29:21;19.63;;;2.17;;
5279;SDS011;2663;53.588;10.010;2023-09-30T12:31:50;9.90;;;2.00;;
5279;SDS011;2663;53.588;10.010;2023-09-30T12:34:20;14.00;;;2.40;;
5279;SDS011;2663;53.588;10.010;2023-09-30T12:36:50;8.53;;;2.10;;
5279;SDS011;2663;53.588;10.010;2023-09-30T12:39:17;10.57;;;2.20;;
5279;SDS011;2663;53.588;10.010;2023-09-30T12:41:51;18.97;;;1.97;;
5279;SDS011;2663;53.588;10.010;2023-09-30T12:44:17;9.20;;;1.60;;
5279;SDS011;2663;53.588;10.010;2023-09-30T12:46:45;11.43;;;2.70;;
5279;SDS011;2663;53.588;10.010;2023-09-30T12:49:12;14.30;;;2.70;;
5279;SDS011;2663;53.588;10.010;2023-09-30T12:51:40;15.67;;;2.77;;
5279;SDS011;2663;53.588;10.010;2023-09-30T12:54:07;15.40;;;2.03;;
5279;SDS011;2663;53.588;10.010;2023-09-30T12:56:34;7.83;;;2.63;;
5279;SDS011;2663;53.588;10.010;2023-09-30T12:59:01;8.73;;;2.47;;
5279;SDS011;2663;53.588;10.010;2023-09-30T13:01:29;11.77;;;1.97;;
5279;SDS011;2663;53.588;10.010;2023-09-30T13:03:58;8.47;;;2.40;;
5279;SDS011;2663;53.588;10.010;2023-09-30T13:06:25;21.13;;;3.13;;
5279;SDS011;2663;53.588;10.010;2023-09-30T13:08:52;7.23;;;1.53;;
5279;SDS011;2663;53.588;10.010;2023-09-30T13:11:18;5.97;;;1.73;;
5279;SDS011;2663;53.588;10.010;2023-09-30T13:13:45;10.17;;;2.10;;
5279;SDS011;2663;53.588;10.010;2023-09-30T13:16:12;20.10;;;2.93;;
5279;SDS011;2663;53.588;10.010;2023-09-30T13:18:39;9.90;;;1.80;;
5279;SDS011;2663;53.588;10.010;2023-09-30T13:21:06;19.83;;;4.17;;
5279;SDS011;2663;53.588;10.010;2023-09-30T13:23:33;11.33;;;2.30;;
5279;SDS011;2663;53.588;10.010;2023-09-30T13:26:00;11.53;;;1.80;;
5279;SDS011;2663;53.588;10.010;2023-09-30T13:28:28;13.30;;;2.67;;
5279;SDS011;2663;53.588;10.010;2023-09-30T13:30:55;13.53;;;2.07;;
5279;SDS011;2663;53.588;10.010;2023-09-30T13:33:23;8.73;;;1.90;;
5279;SDS011;2663;53.588;10.010;2023-09-30T13:35:50;12.53;;;2.30;;
5279;SDS011;2663;53.588;10.010;2023-09-30T13:38:16;13.47;;;3.50;;
5279;SDS011;2663;53.588;10.010;2023-09-30T13:40:43;15.80;;;2.60;;
5279;SDS011;2663;53.588;10.010;2023-09-30T13:43:12;10.50;;;2.03;;
5279;SDS011;2663;53.588;10.010;2023-09-30T13:45:39;15.23;;;2.60;;
5279;SDS011;2663;53.588;10.010;2023-09-30T13:48:06;9.27;;;2.40;;
5279;SDS011;2663;53.588;10.010;2023-09-30T13:50:33;20.83;;;2.67;;
5279;SDS011;2663;53.588;10.010;2023-09-30T13:53:01;8.47;;;2.00;;
5279;SDS011;2663;53.588;10.010;2023-09-30T13:55:29;10.40;;;2.20;;
5279;SDS011;2663;53.588;10.010;2023-09-30T13:57:55;7.63;;;2.10;;
5279;SDS011;2663;53.588;10.010;2023-09-30T14:00:22;9.03;;;2.00;;
5279;SDS011;2663;53.588;10.010;2023-09-30T14:02:50;16.43;;;3.37;;
5279;SDS011;2663;53.588;10.010;2023-09-30T14:05:18;9.87;;;1.67;;
5279;SDS011;2663;53.588;10.010;2023-09-30T14:07:46;17.57;;;2.23;;
5279;SDS011;2663;53.588;10.010;2023-09-30T14:10:14;9.07;;;1.80;;
5279;SDS011;2663;53.588;10.010;2023-09-30T14:12:41;9.40;;;1.90;;
5279;SDS011;2663;53.588;10.010;2023-09-30T14:15:09;12.77;;;2.60;;
5279;SDS011;2663;53.588;10.010;2023-09-30T14:17:36;12.47;;;3.20;;
5279;SDS011;2663;53.588;10.010;2023-09-30T14:20:03;5.50;;;2.10;;
5279;SDS011;2663;53.588;10.010;2023-09-30T14:22:32;14.53;;;2.80;;
5279;SDS011;2663;53.588;10.010;2023-09-30T14:24:59;9.80;;;2.20;;
5279;SDS011;2663;53.588;10.010;2023-09-30T14:27:26;12.23;;;1.97;;
5279;SDS011;2663;53.588;10.010;2023-09-30T14:29:53;10.63;;;2.03;;
5279;SDS011;2663;53.588;10.010;2023-09-30T14:32:20;10.10;;;1.93;;
5279;SDS011;2663;53.588;10.010;2023-09-30T14:34:46;5.83;;;2.20;;
5279;SDS011;2663;53.588;10.010;2023-09-30T14:37:13;14.80;;;1.70;;
5279;SDS011;2663;53.588;10.010;2023-09-30T14:39:40;9.87;;;2.43;;
5279;SDS011;2663;53.588;10.010;2023-09-30T14:42:07;9.60;;;2.23;;
5279;SDS011;2663;53.588;10.010;2023-09-30T14:44:34;14.93;;;2.23;;
5279;SDS011;2663;53.588;10.010;2023-09-30T14:47:01;13.53;;;2.27;;
5279;SDS011;2663;53.588;10.010;2023-09-30T14:49:27;10.43;;;1.80;;
5279;SDS011;2663;53.588;10.010;2023-09-30T14:51:56;6.10;;;1.53;;
5279;SDS011;2663;53.588;10.010;2023-09-30T14:54:23;20.20;;;4.30;;
5279;SDS011;2663;53.588;10.010;2023-09-30T14:56:50;11.10;;;2.30;;
5279;SDS011;2663;53.588;10.010;2023-09-30T14:59:17;14.73;;;2.70;;
5279;SDS011;2663;53.588;10.010;2023-09-30T15:01:43;19.80;;;2.20;;
5279;SDS011;2663;53.588;10.010;2023-09-30T15:04:10;15.23;;;2.73;;
5279;SDS011;2663;53.588;10.010;2023-09-30T15:06:37;14.30;;;1.70;;
5279;SDS011;2663;53.588;10.010;2023-09-30T15:09:04;12.30;;;2.77;;
5279;SDS011;2663;53.588;10.010;2023-09-30T15:11:31;7.23;;;2.10;;
5279;SDS011;2663;53.588;10.010;2023-09-30T15:13:58;8.90;;;1.90;;
5279;SDS011;2663;53.588;10.010;2023-09-30T15:16:25;14.33;;;3.10;;
5279;SDS011;2663;53.588;10.010;2023-09-30T15:18:52;10.53;;;2.63;;
5279;SDS011;2663;53.588;10.010;2023-09-30T15:21:19;10.37;;;2.60;;
5279;SDS011;2663;53.588;10.010;2023-09-30T15:23:46;11.20;;;2.80;;